Flight Track Log - Related Links

Times and Time Zones

All times are in EDT time to prevent confusion due to time zone crossing. See the ASQ4151 flight status page for this flight to view local times or setup timezone preferences in your user account.

Time Position Orientation Groundspeed Altitude Reporting Facility
EDT Latitude Longitude Course Direction KTS MPH feet Rate Location/Type
Tue 06:11:22 AM 39.1333 -76.6667 293° West 200 230 2,300  Level Potomac TRACON
Tue 06:12:22 AM 39.1500 -76.7167 293° West 210 242 5,600 2,636 Climbing Potomac TRACON
Tue 06:13:34 AM 39.1833 -76.8000 297° West 251 289 8,100 1,892 Climbing Potomac TRACON
Tue 06:15:45 AM 39.2678 -77.0069 298° West 285 328 12,000 1,791 Climbing Washington Center
Tue 06:16:45 AM 39.3208 -77.1072 304° West 318 366 13,800 1,700 Climbing Washington Center
Tue 06:17:45 AM 39.3758 -77.2050 306° West 336 387 15,400 1,600 Climbing Washington Center
Tue 06:18:45 AM 39.4306 -77.3139 303° West 352 405 17,000 1,250 Climbing Washington Center
Tue 06:19:45 AM 39.4872 -77.4200 305° West 357 411 17,900 1,145 Climbing Washington Center
Tue 06:21:38 AM 39.5928 -77.6169 305° West 367 422 20,300 1,318 Climbing Cleveland Center
Tue 06:22:38 AM 39.6519 -77.7331 304° West 373 429 21,700 1,300 Climbing Cleveland Center
Tue 06:23:38 AM 39.7156 -77.8519 305° West 389 448 22,900 1,100 Climbing Cleveland Center
Tue 06:24:38 AM 39.7767 -77.9736 303° West 389 448 23,900 550 Climbing Cleveland Center
Tue 06:25:38 AM 39.8419 -78.0983 304° West 402 463 24,000 50 Climbing Cleveland Center
Tue 06:26:38 AM 39.9197 -78.2172 310° West 420 483 24,000  Level Cleveland Center
Tue 06:27:38 AM 40.0036 -78.3525 309° West 438 504 24,000  Level Cleveland Center
Tue 06:28:38 AM 40.0808 -78.4719 310° West 438 504 24,000  Level Cleveland Center
Tue 06:29:38 AM 40.1581 -78.5892 311° West 433 498 24,000  Level Cleveland Center
Tue 06:30:39 AM 40.2353 -78.7119 310° West 433 498 24,000  Level Cleveland Center
Tue 06:31:38 AM 40.3144 -78.8322 311° West 438 504 24,000  Level Cleveland Center
Tue 06:32:38 AM 40.3869 -78.9558 308° West 438 504 24,000  Level Cleveland Center
Tue 06:33:38 AM 40.4575 -79.0822 306° West 432 497 24,000  Level Cleveland Center
Tue 06:34:38 AM 40.5258 -79.2064 306° West 427 491 24,000  Level Cleveland Center
Tue 06:35:38 AM 40.5917 -79.3200 307° West 427 491 24,000  Level Cleveland Center
Tue 06:36:38 AM 40.6619 -79.4444 307° West 427 491 24,000  Level Cleveland Center
Tue 06:37:38 AM 40.7319 -79.5747 305° West 432 497 24,000  Level Cleveland Center
Tue 06:38:38 AM 40.8017 -79.7025 306° West 432 497 24,000  Level Cleveland Center
Tue 06:39:38 AM 40.8714 -79.8281 306° West 432 497 24,000  Level Cleveland Center
Tue 06:40:38 AM 40.9431 -79.9564 307° West 432 497 24,000  Level Cleveland Center
Tue 06:41:38 AM 41.0125 -80.0822 306° West 432 497 24,000  Level Cleveland Center
Tue 06:42:38 AM 41.0817 -80.2111 305° West 432 497 24,000  Level Cleveland Center
Tue 06:43:38 AM 41.1592 -80.3542 306° West 432 497 24,000  Level Cleveland Center
Tue 06:44:38 AM 41.2283 -80.4836 305° West 432 497 24,000 -600 Level Cleveland Center
Tue 06:45:38 AM 41.2825 -80.5858 305° West 381 438 22,800 -1,900 Descending Cleveland Center
Tue 06:46:38 AM 41.3344 -80.6883 304° West 345 397 20,200 -2,300 Descending Cleveland Center
Tue 06:47:38 AM 41.3761 -80.7933 298° West 333 383 18,200 -1,700 Descending Cleveland Center
Tue 06:48:38 AM 41.4114 -80.8850 297° West 319 367 16,800 -1,700 Descending Cleveland Center
Tue 06:49:38 AM 41.4633 -80.9628 312° West 298 343 14,800 -1,750 Descending Cleveland Center
Tue 06:50:38 AM 41.5317 -81.0242 326° Northwest 291 335 13,300 -1,767 Descending Cleveland Center
Tue 06:51:47 AM 41.5356 -81.1464 272° West 278 320 11,000 -1,650 Descending Cleveland Center
Tue 06:52:38 AM 41.5453 -81.2267 279° West 272 313 10,000 -1,568 Descending Cleveland Center
Tue 06:53:38 AM 41.5572 -81.3239 279° West 277 319 8,100 -1,700 Descending Cleveland Center
Tue 06:54:38 AM 41.5672 -81.4186 278° West 277 319 6,600 -1,281 Descending Cleveland Center
Tue 06:55:07 AM 41.5708 -81.4658 276° West 234 269 6,200 -600 Descending Cleveland Center
Tue 06:55:38 AM 41.5769 -81.4992 284° West 248 285 6,000 -764 Descending Cleveland Center
Tue 06:56:02 AM 41.5808 -81.5325 279° West 175 201 5,500 -1,000 Descending Cleveland Center
Tue 06:56:38 AM 41.5742 -81.5656 255° West 198 228 5,000 -1,000 Descending Cleveland Center
Tue 06:57:02 AM 41.5678 -81.6017 257° West 194 223 4,500 -1,000 Descending Cleveland Center
Tue 06:57:38 AM 41.5550 -81.6292 238° Southwest 182 209 4,000 -448 Descending Cleveland Center
Tue 06:58:09 AM 41.5317 -81.6622 227° Southwest 183 211 4,000 -100 Level Cleveland Center
Tue 06:58:38 AM 41.5189 -81.6842 232° Southwest 182 209 3,900 -492 Descending Cleveland Center
Tue 06:59:10 AM 41.5019 -81.7114 230° Southwest 181 208 3,500 -800 Descending Cleveland Center
Tue 06:59:38 AM 41.4853 -81.7333 225° Southwest 182 209 3,100 -800 Descending Cleveland Center
Tue 07:00:10 AM 41.4725 -81.7581 235° Southwest 171 197 2,700 -727 Descending Cleveland Center
Tue 07:01:17 AM 41.4469 -81.7964 228° Southwest 109 125 1,900 -709 Descending Cleveland Center
Tue 07:02:17 AM 41.4258 -81.8319 232° Southwest 123 142 1,200 -700 Descending Cleveland Center
Tue 07:04:00 AM 41.4000 -81.8500 252° West  Level FlightAware Approximate

Login

Don't have an account? Register now (free) for customized features, flight alerts, and more!